sensor_id;sensor_type;location;lat;lon;timestamp;pressure;altitude;pressure_sealevel;temperature;humidity
76132;BME280;64877;50.994;13.650;2024-01-30T00:01:09;101121.78;;;1.01;94.24
76132;BME280;64877;50.994;13.650;2024-01-30T00:03:34;101130.69;;;1.00;94.38
76132;BME280;64877;50.994;13.650;2024-01-30T00:06:03;101123.56;;;1.01;94.29
76132;BME280;64877;50.994;13.650;2024-01-30T00:08:29;101117.44;;;0.96;93.99
76132;BME280;64877;50.994;13.650;2024-01-30T00:10:54;101122.75;;;0.96;94.11
76132;BME280;64877;50.994;13.650;2024-01-30T00:13:20;101121.00;;;0.93;94.29
76132;BME280;64877;50.994;13.650;2024-01-30T00:15:45;101129.03;;;0.92;94.01
76132;BME280;64877;50.994;13.650;2024-01-30T00:18:11;101128.13;;;0.93;94.94
76132;BME280;64877;50.994;13.650;2024-01-30T00:20:36;101123.69;;;0.92;94.40
76132;BME280;64877;50.994;13.650;2024-01-30T00:23:02;101116.69;;;0.86;94.57
76132;BME280;64877;50.994;13.650;2024-01-30T00:25:27;101122.88;;;0.87;94.60
76132;BME280;64877;50.994;13.650;2024-01-30T00:27:53;101122.91;;;0.84;95.20
76132;BME280;64877;50.994;13.650;2024-01-30T00:30:19;101125.53;;;0.87;95.05
76132;BME280;64877;50.994;13.650;2024-01-30T00:32:45;101126.47;;;0.83;95.90
76132;BME280;64877;50.994;13.650;2024-01-30T00:35:11;101131.81;;;0.83;96.21
76132;BME280;64877;50.994;13.650;2024-01-30T00:37:36;101125.63;;;0.81;95.64
76132;BME280;64877;50.994;13.650;2024-01-30T00:40:02;101129.28;;;0.72;96.21
76132;BME280;64877;50.994;13.650;2024-01-30T00:42:27;101121.28;;;0.73;95.91
76132;BME280;64877;50.994;13.650;2024-01-30T00:44:52;101125.69;;;0.74;96.38
76132;BME280;64877;50.994;13.650;2024-01-30T00:47:18;101130.16;;;0.75;96.69
76132;BME280;64877;50.994;13.650;2024-01-30T00:49:43;101121.25;;;0.76;96.70
76132;BME280;64877;50.994;13.650;2024-01-30T00:52:09;101124.94;;;0.66;96.25
76132;BME280;64877;50.994;13.650;2024-01-30T00:54:34;101128.44;;;0.68;96.99
76132;BME280;64877;50.994;13.650;2024-01-30T00:56:59;101120.50;;;0.67;97.10
76132;BME280;64877;50.994;13.650;2024-01-30T00:59:25;101116.97;;;0.66;96.52
76132;BME280;64877;50.994;13.650;2024-01-30T01:01:50;101121.38;;;0.67;96.77
76132;BME280;64877;50.994;13.650;2024-01-30T01:04:16;101114.28;;;0.68;96.95
76132;BME280;64877;50.994;13.650;2024-01-30T01:06:42;101118.75;;;0.64;96.91
76132;BME280;64877;50.994;13.650;2024-01-30T01:09:10;101121.41;;;0.64;96.36
76132;BME280;64877;50.994;13.650;2024-01-30T01:11:36;101119.63;;;0.66;96.71
76132;BME280;64877;50.994;13.650;2024-01-30T01:14:03;101112.50;;;0.70;96.65
76132;BME280;64877;50.994;13.650;2024-01-30T01:16:28;101116.16;;;0.61;97.34
76132;BME280;64877;50.994;13.650;2024-01-30T01:18:54;101122.38;;;0.60;97.58
76132;BME280;64877;50.994;13.650;2024-01-30T01:21:19;101117.03;;;0.62;97.65
76132;BME280;64877;50.994;13.650;2024-01-30T01:23:44;101124.09;;;0.63;97.56
76132;BME280;64877;50.994;13.650;2024-01-30T01:26:10;101118.75;;;0.64;97.06
76132;BME280;64877;50.994;13.650;2024-01-30T01:28:36;101121.50;;;0.58;97.12
76132;BME280;64877;50.994;13.650;2024-01-30T01:31:01;101115.31;;;0.58;96.32
76132;BME280;64877;50.994;13.650;2024-01-30T01:33:34;101117.13;;;0.56;96.55
76132;BME280;64877;50.994;13.650;2024-01-30T01:36:01;101122.38;;;0.60;96.79
76132;BME280;64877;50.994;13.650;2024-01-30T01:38:29;101118.81;;;0.61;96.65
76132;BME280;64877;50.994;13.650;2024-01-30T01:40:54;101122.38;;;0.60;96.38
76132;BME280;64877;50.994;13.650;2024-01-30T01:43:20;101117.94;;;0.61;96.32
76132;BME280;64877;50.994;13.650;2024-01-30T01:45:45;101110.94;;;0.55;96.58
76132;BME280;64877;50.994;13.650;2024-01-30T01:48:11;101119.84;;;0.51;96.34
76132;BME280;64877;50.994;13.650;2024-01-30T01:50:38;101112.78;;;0.50;96.51
76132;BME280;64877;50.994;13.650;2024-01-30T01:53:06;101121.56;;;0.55;96.71
76132;BME280;64877;50.994;13.650;2024-01-30T01:55:33;101108.34;;;0.47;96.84
76132;BME280;64877;50.994;13.650;2024-01-30T01:57:59;101114.50;;;0.51;96.38
76132;BME280;64877;50.994;13.650;2024-01-30T02:00:24;101113.63;;;0.50;96.22
76132;BME280;64877;50.994;13.650;2024-01-30T02:02:50;101117.25;;;0.45;96.26
76132;BME280;64877;50.994;13.650;2024-01-30T02:05:17;101114.72;;;0.36;96.24
76132;BME280;64877;50.994;13.650;2024-01-30T02:07:43;101112.03;;;0.37;96.74
76132;BME280;64877;50.994;13.650;2024-01-30T02:10:09;101111.06;;;0.43;97.59
76132;BME280;64877;50.994;13.650;2024-01-30T02:12:37;101111.03;;;0.44;97.02
76132;BME280;64877;50.994;13.650;2024-01-30T02:15:03;101102.19;;;0.44;96.38
76132;BME280;64877;50.994;13.650;2024-01-30T02:17:30;101116.38;;;0.43;96.49
76132;BME280;64877;50.994;13.650;2024-01-30T02:19:56;101100.44;;;0.43;96.73
76132;BME280;64877;50.994;13.650;2024-01-30T02:22:22;101104.03;;;0.39;96.68
76132;BME280;64877;50.994;13.650;2024-01-30T02:24:47;101102.25;;;0.41;96.89
76132;BME280;64877;50.994;13.650;2024-01-30T02:27:13;101101.31;;;0.45;96.83
76132;BME280;64877;50.994;13.650;2024-01-30T02:29:38;101100.47;;;0.40;97.32
76132;BME280;64877;50.994;13.650;2024-01-30T02:32:04;101103.13;;;0.40;97.80
76132;BME280;64877;50.994;13.650;2024-01-30T02:34:30;101103.97;;;0.45;98.06
76132;BME280;64877;50.994;13.650;2024-01-30T02:36:56;101097.78;;;0.43;98.28
76132;BME280;64877;50.994;13.650;2024-01-30T02:39:21;101102.19;;;0.45;97.97
76132;BME280;64877;50.994;13.650;2024-01-30T02:41:47;101094.31;;;0.38;97.90
76132;BME280;64877;50.994;13.650;2024-01-30T02:44:12;101091.63;;;0.41;98.55
76132;BME280;64877;50.994;13.650;2024-01-30T02:46:37;101096.88;;;0.44;99.02
76132;BME280;64877;50.994;13.650;2024-01-30T02:49:03;101090.63;;;0.48;98.62
76132;BME280;64877;50.994;13.650;2024-01-30T02:51:28;101090.59;;;0.51;98.15
76132;BME280;64877;50.994;13.650;2024-01-30T02:53:53;101086.25;;;0.44;97.52
76132;BME280;64877;50.994;13.650;2024-01-30T02:56:19;101088.09;;;0.39;97.41
76132;BME280;64877;50.994;13.650;2024-01-30T02:58:44;101094.28;;;0.41;97.43
76132;BME280;64877;50.994;13.650;2024-01-30T03:01:09;101095.25;;;0.34;98.54
76132;BME280;64877;50.994;13.650;2024-01-30T03:03:35;101087.19;;;0.40;99.24
76132;BME280;64877;50.994;13.650;2024-01-30T03:06:01;101088.09;;;0.40;98.76
76132;BME280;64877;50.994;13.650;2024-01-30T03:08:27;101088.94;;;0.42;98.85
76132;BME280;64877;50.994;13.650;2024-01-30T03:10:52;101085.44;;;0.40;99.06
76132;BME280;64877;50.994;13.650;2024-01-30T03:13:18;101080.06;;;0.43;98.46
76132;BME280;64877;50.994;13.650;2024-01-30T03:15:43;101080.22;;;0.31;98.19
76132;BME280;64877;50.994;13.650;2024-01-30T03:18:08;101081.91;;;0.38;97.94
76132;BME280;64877;50.994;13.650;2024-01-30T03:20:34;101079.28;;;0.37;98.00
76132;BME280;64877;50.994;13.650;2024-01-30T03:23:00;101079.34;;;0.31;97.51
76132;BME280;64877;50.994;13.650;2024-01-30T03:25:25;101081.94;;;0.34;98.02
76132;BME280;64877;50.994;13.650;2024-01-30T03:27:51;101082.00;;;0.31;98.70
76132;BME280;64877;50.994;13.650;2024-01-30T03:30:17;101075.72;;;0.35;97.72
76132;BME280;64877;50.994;13.650;2024-01-30T03:32:42;101075.81;;;0.29;98.45
76132;BME280;64877;50.994;13.650;2024-01-30T03:35:08;101078.47;;;0.30;97.63
76132;BME280;64877;50.994;13.650;2024-01-30T03:37:34;101080.25;;;0.28;97.46
76132;BME280;64877;50.994;13.650;2024-01-30T03:39:59;101081.19;;;0.25;98.04
76132;BME280;64877;50.994;13.650;2024-01-30T03:42:24;101074.97;;;0.27;98.03
76132;BME280;64877;50.994;13.650;2024-01-30T03:44:50;101078.50;;;0.27;98.22
76132;BME280;64877;50.994;13.650;2024-01-30T03:47:20;101079.34;;;0.31;98.87
76132;BME280;64877;50.994;13.650;2024-01-30T03:49:46;101076.66;;;0.32;98.60
76132;BME280;64877;50.994;13.650;2024-01-30T03:52:12;101074.88;;;0.33;98.78
76132;BME280;64877;50.994;13.650;2024-01-30T03:54:37;101081.03;;;0.35;98.95
76132;BME280;64877;50.994;13.650;2024-01-30T03:57:03;101083.72;;;0.36;98.57
76132;BME280;64877;50.994;13.650;2024-01-30T03:59:28;101081.06;;;0.36;98.08
76132;BME280;64877;50.994;13.650;2024-01-30T04:01:54;101072.34;;;0.23;98.22
76132;BME280;64877;50.994;13.650;2024-01-30T04:04:20;101078.53;;;0.24;98.73
76132;BME280;64877;50.994;13.650;2024-01-30T04:06:45;101074.09;;;0.24;98.48
76132;BME280;64877;50.994;13.650;2024-01-30T04:09:12;101079.41;;;0.24;99.76
76132;BME280;64877;50.994;13.650;2024-01-30T04:11:38;101082.00;;;0.29;98.97
76132;BME280;64877;50.994;13.650;2024-01-30T04:14:04;101069.53;;;0.34;98.87
76132;BME280;64877;50.994;13.650;2024-01-30T04:16:29;101077.59;;;0.28;98.92
76132;BME280;64877;50.994;13.650;2024-01-30T04:18:55;101082.84;;;0.33;99.02
76132;BME280;64877;50.994;13.650;2024-01-30T04:21:21;101071.38;;;0.31;99.17
76132;BME280;64877;50.994;13.650;2024-01-30T04:23:47;101074.84;;;0.34;99.37
76132;BME280;64877;50.994;13.650;2024-01-30T04:26:13;101073.97;;;0.37;99.24
76132;BME280;64877;50.994;13.650;2024-01-30T04:28:41;101072.25;;;0.30;98.58
76132;BME280;64877;50.994;13.650;2024-01-30T04:31:06;101069.59;;;0.31;98.72
76132;BME280;64877;50.994;13.650;2024-01-30T04:33:32;101066.06;;;0.31;98.77
76132;BME280;64877;50.994;13.650;2024-01-30T04:35:57;101068.78;;;0.24;98.57
76132;BME280;64877;50.994;13.650;2024-01-30T04:38:22;101067.91;;;0.25;98.91
76132;BME280;64877;50.994;13.650;2024-01-30T04:40:48;101066.06;;;0.29;99.35
76132;BME280;64877;50.994;13.650;2024-01-30T04:43:13;101068.72;;;0.31;98.83
76132;BME280;64877;50.994;13.650;2024-01-30T04:45:39;101064.22;;;0.34;99.08
76132;BME280;64877;50.994;13.650;2024-01-30T04:48:05;101070.47;;;0.32;98.73
76132;BME280;64877;50.994;13.650;2024-01-30T04:50:31;101069.59;;;0.31;98.76
76132;BME280;64877;50.994;13.650;2024-01-30T04:52:56;101070.44;;;0.33;99.02
76132;BME280;64877;50.994;13.650;2024-01-30T04:55:21;101063.44;;;0.28;98.44
76132;BME280;64877;50.994;13.650;2024-01-30T04:57:47;101075.81;;;0.29;98.71
76132;BME280;64877;50.994;13.650;2024-01-30T05:00:12;101061.78;;;0.20;98.67
76132;BME280;64877;50.994;13.650;2024-01-30T05:02:38;101061.81;;;0.17;99.38
76132;BME280;64877;50.994;13.650;2024-01-30T05:05:04;101059.97;;;0.22;99.27
76132;BME280;64877;50.994;13.650;2024-01-30T05:07:29;101067.97;;;0.21;99.90
76132;BME280;64877;50.994;13.650;2024-01-30T05:09:55;101059.09;;;0.22;99.69
76132;BME280;64877;50.994;13.650;2024-01-30T05:12:20;101057.41;;;0.16;99.77
76132;BME280;64877;50.994;13.650;2024-01-30T05:14:45;101068.00;;;0.18;99.87
76132;BME280;64877;50.994;13.650;2024-01-30T05:17:11;101060.06;;;0.16;99.80
76132;BME280;64877;50.994;13.650;2024-01-30T05:19:38;101061.81;;;0.17;99.74
76132;BME280;64877;50.994;13.650;2024-01-30T05:22:04;101054.69;;;0.19;99.53
76132;BME280;64877;50.994;13.650;2024-01-30T05:24:29;101050.28;;;0.18;99.92
76132;BME280;64877;50.994;13.650;2024-01-30T05:26:54;101053.81;;;0.19;100.00
76132;BME280;64877;50.994;13.650;2024-01-30T05:29:20;101055.56;;;0.21;99.81
76132;BME280;64877;50.994;13.650;2024-01-30T05:31:45;101052.91;;;0.21;99.97
76132;BME280;64877;50.994;13.650;2024-01-30T05:34:11;101056.50;;;0.17;100.00
76132;BME280;64877;50.994;13.650;2024-01-30T05:36:36;101066.28;;;0.15;99.41
76132;BME280;64877;50.994;13.650;2024-01-30T05:39:01;101061.78;;;0.19;99.78
76132;BME280;64877;50.994;13.650;2024-01-30T05:41:27;101060.00;;;0.19;99.63
76132;BME280;64877;50.994;13.650;2024-01-30T05:43:53;101064.47;;;0.14;99.75
76132;BME280;64877;50.994;13.650;2024-01-30T05:46:18;101060.97;;;0.15;100.00
76132;BME280;64877;50.994;13.650;2024-01-30T05:48:44;101055.59;;;0.18;100.00
76132;BME280;64877;50.994;13.650;2024-01-30T05:51:09;101050.34;;;0.15;100.00
76132;BME280;64877;50.994;13.650;2024-01-30T05:53:34;101053.84;;;0.17;100.00
76132;BME280;64877;50.994;13.650;2024-01-30T05:56:04;101057.38;;;0.18;100.00
76132;BME280;64877;50.994;13.650;2024-01-30T05:58:30;101054.69;;;0.19;100.00
76132;BME280;64877;50.994;13.650;2024-01-30T06:00:56;101052.91;;;0.20;100.00
76132;BME280;64877;50.994;13.650;2024-01-30T06:03:22;101057.41;;;0.13;100.00
76132;BME280;64877;50.994;13.650;2024-01-30T06:05:48;101058.25;;;0.18;100.00
76132;BME280;64877;50.994;13.650;2024-01-30T06:08:13;101057.34;;;0.21;100.00
76132;BME280;64877;50.994;13.650;2024-01-30T06:10:38;101061.75;;;0.22;100.00
76132;BME280;64877;50.994;13.650;2024-01-30T06:13:04;101065.25;;;0.24;99.71
76132;BME280;64877;50.994;13.650;2024-01-30T06:15:30;101059.94;;;0.25;100.00
76132;BME280;64877;50.994;13.650;2024-01-30T06:17:55;101059.06;;;0.25;99.56
76132;BME280;64877;50.994;13.650;2024-01-30T06:20:21;101058.25;;;0.18;99.46
76132;BME280;64877;50.994;13.650;2024-01-30T06:22:46;101054.75;;;0.16;99.01
76132;BME280;64877;50.994;13.650;2024-01-30T06:25:12;101050.34;;;0.15;99.60
76132;BME280;64877;50.994;13.650;2024-01-30T06:27:37;101054.69;;;0.19;99.50
76132;BME280;64877;50.994;13.650;2024-01-30T06:30:04;101054.72;;;0.18;99.87
76132;BME280;64877;50.994;13.650;2024-01-30T06:32:29;101052.09;;;0.15;99.74
76132;BME280;64877;50.994;13.650;2024-01-30T06:35:02;101055.56;;;0.21;99.95
76132;BME280;64877;50.994;13.650;2024-01-30T06:37:27;101044.13;;;0.16;99.84
76132;BME280;64877;50.994;13.650;2024-01-30T06:39:53;101059.97;;;0.22;100.00
76132;BME280;64877;50.994;13.650;2024-01-30T06:42:18;101051.09;;;0.25;100.00
76132;BME280;64877;50.994;13.650;2024-01-30T06:44:44;101052.81;;;0.28;100.00
76132;BME280;64877;50.994;13.650;2024-01-30T06:47:10;101052.72;;;0.34;100.00
76132;BME280;64877;50.994;13.650;2024-01-30T06:49:35;101049.09;;;0.41;100.00
76132;BME280;64877;50.994;13.650;2024-01-30T06:52:05;101043.69;;;0.47;100.00
76132;BME280;64877;50.994;13.650;2024-01-30T06:54:30;101050.75;;;0.48;100.00
76132;BME280;64877;50.994;13.650;2024-01-30T06:56:56;101040.88;;;0.58;100.00
76132;BME280;64877;50.994;13.650;2024-01-30T06:59:22;101053.22;;;0.63;99.30
76132;BME280;64877;50.994;13.650;2024-01-30T07:01:47;101051.53;;;0.58;98.22
76132;BME280;64877;50.994;13.650;2024-01-30T07:04:13;101049.72;;;0.61;98.14
76132;BME280;64877;50.994;13.650;2024-01-30T07:06:38;101055.00;;;0.63;97.78
76132;BME280;64877;50.994;13.650;2024-01-30T07:09:04;101052.31;;;0.64;98.06
76132;BME280;64877;50.994;13.650;2024-01-30T07:11:30;101053.91;;;0.74;97.96
76132;BME280;64877;50.994;13.650;2024-01-30T07:13:56;101051.94;;;0.89;97.37
76132;BME280;64877;50.994;13.650;2024-01-30T07:16:21;101051.63;;;1.10;97.56
76132;BME280;64877;50.994;13.650;2024-01-30T07:18:47;101052.91;;;1.37;96.69
76132;BME280;64877;50.994;13.650;2024-01-30T07:21:13;101055.16;;;1.62;95.54
76132;BME280;64877;50.994;13.650;2024-01-30T07:23:38;101047.94;;;1.67;94.60
76132;BME280;64877;50.994;13.650;2024-01-30T07:26:06;101049.56;;;1.74;93.40
76132;BME280;64877;50.994;13.650;2024-01-30T07:28:32;101058.09;;;1.93;92.40
76132;BME280;64877;50.994;13.650;2024-01-30T07:30:58;101054.28;;;2.06;91.96
76132;BME280;64877;50.994;13.650;2024-01-30T07:33:23;101056.72;;;2.17;91.68
76132;BME280;64877;50.994;13.650;2024-01-30T07:35:49;101046.47;;;2.40;90.73
76132;BME280;64877;50.994;13.650;2024-01-30T07:38:14;101059.63;;;2.48;89.17
76132;BME280;64877;50.994;13.650;2024-01-30T07:40:40;101048.50;;;2.69;88.52
76132;BME280;64877;50.994;13.650;2024-01-30T07:43:06;101042.81;;;2.84;86.89
76132;BME280;64877;50.994;13.650;2024-01-30T07:45:32;101042.50;;;2.97;86.01
76132;BME280;64877;50.994;13.650;2024-01-30T07:47:58;101036.66;;;3.17;86.08
76132;BME280;64877;50.994;13.650;2024-01-30T07:50:25;101037.84;;;3.41;84.90
76132;BME280;64877;50.994;13.650;2024-01-30T07:52:50;101041.03;;;3.55;83.43
76132;BME280;64877;50.994;13.650;2024-01-30T07:55:20;101040.88;;;3.61;83.13
76132;BME280;64877;50.994;13.650;2024-01-30T07:57:52;101040.69;;;4.00;81.73
76132;BME280;64877;50.994;13.650;2024-01-30T08:00:18;101043.84;;;4.14;81.11
76132;BME280;64877;50.994;13.650;2024-01-30T08:02:45;101039.00;;;4.28;80.22
76132;BME280;64877;50.994;13.650;2024-01-30T08:05:10;101035.28;;;4.32;78.86
76132;BME280;64877;50.994;13.650;2024-01-30T08:07:37;101035.78;;;4.45;78.98
76132;BME280;64877;50.994;13.650;2024-01-30T08:10:02;101030.56;;;4.70;79.80
76132;BME280;64877;50.994;13.650;2024-01-30T08:12:28;101036.59;;;5.05;78.05
76132;BME280;64877;50.994;13.650;2024-01-30T08:14:53;101043.03;;;5.26;75.82
76132;BME280;64877;50.994;13.650;2024-01-30T08:17:18;101044.69;;;5.30;75.19
76132;BME280;64877;50.994;13.650;2024-01-30T08:19:44;101034.44;;;5.16;75.80
76132;BME280;64877;50.994;13.650;2024-01-30T08:22:09;101037.13;;;5.42;75.09
76132;BME280;64877;50.994;13.650;2024-01-30T08:24:35;101035.78;;;5.29;74.12
76132;BME280;64877;50.994;13.650;2024-01-30T08:27:00;101031.06;;;5.37;74.09
76132;BME280;64877;50.994;13.650;2024-01-30T08:29:27;101029.19;;;5.39;74.72
76132;BME280;64877;50.994;13.650;2024-01-30T08:31:53;101032.13;;;5.57;73.94
76132;BME280;64877;50.994;13.650;2024-01-30T08:34:20;101027.31;;;5.68;73.76
76132;BME280;64877;50.994;13.650;2024-01-30T08:36:46;101034.09;;;5.78;73.13
76132;BME280;64877;50.994;13.650;2024-01-30T08:39:11;101030.38;;;5.82;73.62
76132;BME280;64877;50.994;13.650;2024-01-30T08:41:37;101027.53;;;6.12;73.02
76132;BME280;64877;50.994;13.650;2024-01-30T08:44:02;101030.25;;;6.10;73.42
76132;BME280;64877;50.994;13.650;2024-01-30T08:46:29;101038.84;;;6.20;71.22
76132;BME280;64877;50.994;13.650;2024-01-30T08:48:55;101023.19;;;6.55;70.16
76132;BME280;64877;50.994;13.650;2024-01-30T08:51:21;101025.03;;;6.76;69.37
76132;BME280;64877;50.994;13.650;2024-01-30T08:53:47;101030.84;;;7.09;69.08
76132;BME280;64877;50.994;13.650;2024-01-30T08:56:12;101034.50;;;7.08;67.39
76132;BME280;64877;50.994;13.650;2024-01-30T08:58:38;101037.28;;;7.27;66.10
76132;BME280;64877;50.994;13.650;2024-01-30T09:01:04;101037.41;;;7.46;65.62
76132;BME280;64877;50.994;13.650;2024-01-30T09:03:31;101032.25;;;7.40;65.36
76132;BME280;64877;50.994;13.650;2024-01-30T09:05:56;101040.50;;;7.35;66.00
76132;BME280;64877;50.994;13.650;2024-01-30T09:08:22;101042.63;;;7.49;66.83
76132;BME280;64877;50.994;13.650;2024-01-30T09:10:47;101045.22;;;7.50;66.28
76132;BME280;64877;50.994;13.650;2024-01-30T09:13:13;101058.78;;;7.69;66.20
76132;BME280;64877;50.994;13.650;2024-01-30T09:15:38;101054.25;;;7.90;65.51
76132;BME280;64877;50.994;13.650;2024-01-30T09:18:04;101052.13;;;7.78;64.68
76132;BME280;64877;50.994;13.650;2024-01-30T09:20:30;101046.75;;;7.58;64.33
76132;BME280;64877;50.994;13.650;2024-01-30T09:22:55;101035.31;;;7.73;64.90
76132;BME280;64877;50.994;13.650;2024-01-30T09:25:20;101033.31;;;7.58;65.30
76132;BME280;64877;50.994;13.650;2024-01-30T09:27:46;101043.66;;;7.87;65.93
76132;BME280;64877;50.994;13.650;2024-01-30T09:30:12;101038.78;;;8.36;65.28
76132;BME280;64877;50.994;13.650;2024-01-30T09:32:39;101034.88;;;8.62;63.28
76132;BME280;64877;50.994;13.650;2024-01-30T09:35:05;101036.81;;;8.96;61.08
76132;BME280;64877;50.994;13.650;2024-01-30T09:37:31;101035.22;;;8.92;61.62
76132;BME280;64877;50.994;13.650;2024-01-30T09:39:56;101034.22;;;8.76;59.73
76132;BME280;64877;50.994;13.650;2024-01-30T09:42:33;101035.78;;;8.99;60.10
76132;BME280;64877;50.994;13.650;2024-01-30T09:45:01;101032.16;;;9.36;59.23
76132;BME280;64877;50.994;13.650;2024-01-30T09:47:27;101035.81;;;9.52;58.53
76132;BME280;64877;50.994;13.650;2024-01-30T09:49:52;101030.19;;;9.57;58.67
76132;BME280;64877;50.994;13.650;2024-01-30T09:52:18;101031.50;;;9.48;57.50
76132;BME280;64877;50.994;13.650;2024-01-30T09:54:44;101020.59;;;9.51;58.19
76132;BME280;64877;50.994;13.650;2024-01-30T09:57:11;101015.91;;;9.55;59.02
76132;BME280;64877;50.994;13.650;2024-01-30T09:59:37;101014.16;;;9.71;58.68
76132;BME280;64877;50.994;13.650;2024-01-30T10:02:02;101002.72;;;10.34;56.50
76132;BME280;64877;50.994;13.650;2024-01-30T10:04:30;101007.09;;;10.52;55.62
76132;BME280;64877;50.994;13.650;2024-01-30T10:06:56;101014.09;;;10.88;53.77
76132;BME280;64877;50.994;13.650;2024-01-30T10:09:22;101004.41;;;11.00;52.12
76132;BME280;64877;50.994;13.650;2024-01-30T10:11:48;101003.00;;;11.24;52.50
76132;BME280;64877;50.994;13.650;2024-01-30T10:14:14;100999.69;;;11.49;51.45
76132;BME280;64877;50.994;13.650;2024-01-30T10:16:39;100985.22;;;11.95;49.61
76132;BME280;64877;50.994;13.650;2024-01-30T10:19:04;100991.63;;;11.78;50.03
76132;BME280;64877;50.994;13.650;2024-01-30T10:21:30;100985.28;;;11.79;49.72
76132;BME280;64877;50.994;13.650;2024-01-30T10:23:56;100977.22;;;12.22;49.46
76132;BME280;64877;50.994;13.650;2024-01-30T10:26:21;100974.09;;;12.42;48.67
76132;BME280;64877;50.994;13.650;2024-01-30T10:28:48;100970.78;;;12.65;47.70
76132;BME280;64877;50.994;13.650;2024-01-30T10:31:17;100969.31;;;13.01;47.25
76132;BME280;64877;50.994;13.650;2024-01-30T10:33:44;100967.69;;;12.99;45.96
76132;BME280;64877;50.994;13.650;2024-01-30T10:36:13;100965.94;;;13.64;46.31
76132;BME280;64877;50.994;13.650;2024-01-30T10:38:42;100959.31;;;13.56;44.77
76132;BME280;64877;50.994;13.650;2024-01-30T10:41:11;100963.78;;;13.69;45.01
76132;BME280;64877;50.994;13.650;2024-01-30T10:43:41;100955.06;;;13.39;44.76
76132;BME280;64877;50.994;13.650;2024-01-30T10:46:19;100950.50;;;13.52;44.48
76132;BME280;64877;50.994;13.650;2024-01-30T10:48:50;100952.06;;;13.82;44.23
76132;BME280;64877;50.994;13.650;2024-01-30T10:51:17;100943.94;;;13.02;44.29
76132;BME280;64877;50.994;13.650;2024-01-30T10:53:46;100940.84;;;12.67;45.15
76132;BME280;64877;50.994;13.650;2024-01-30T10:56:12;100936.91;;;11.88;46.98
76132;BME280;64877;50.994;13.650;2024-01-30T10:58:39;100938.38;;;11.20;48.10
76132;BME280;64877;50.994;13.650;2024-01-30T11:01:05;100930.25;;;10.90;48.56
76132;BME280;64877;50.994;13.650;2024-01-30T11:03:32;100942.97;;;10.72;49.78
76132;BME280;64877;50.994;13.650;2024-01-30T11:06:00;100936.53;;;10.74;49.62
76132;BME280;64877;50.994;13.650;2024-01-30T11:08:26;100935.91;;;10.53;50.11
76132;BME280;64877;50.994;13.650;2024-01-30T11:10:57;100924.69;;;10.29;50.62
76132;BME280;64877;50.994;13.650;2024-01-30T11:13:27;100916.31;;;10.34;51.21
76132;BME280;64877;50.994;13.650;2024-01-30T11:15:52;100913.19;;;10.26;51.29
76132;BME280;64877;50.994;13.650;2024-01-30T11:18:25;100915.00;;;10.25;51.68
76132;BME280;64877;50.994;13.650;2024-01-30T11:20:51;100909.16;;;10.33;51.96
76132;BME280;64877;50.994;13.650;2024-01-30T11:23:16;100909.34;;;10.61;51.83
76132;BME280;64877;50.994;13.650;2024-01-30T11:25:43;100912.66;;;10.67;51.42
76132;BME280;64877;50.994;13.650;2024-01-30T11:28:16;100906.72;;;10.76;52.35
76132;BME280;64877;50.994;13.650;2024-01-30T11:30:42;100908.28;;;10.80;52.13
76132;BME280;64877;50.994;13.650;2024-01-30T11:33:12;100908.88;;;10.85;51.59
76132;BME280;64877;50.994;13.650;2024-01-30T11:35:41;100905.66;;;10.78;52.22
76132;BME280;64877;50.994;13.650;2024-01-30T11:38:08;100905.56;;;10.64;52.13
76132;BME280;64877;50.994;13.650;2024-01-30T11:40:35;100909.19;;;10.65;51.44
76132;BME280;64877;50.994;13.650;2024-01-30T11:43:02;100914.03;;;10.74;51.84
76132;BME280;64877;50.994;13.650;2024-01-30T11:45:28;100908.22;;;10.50;51.96
76132;BME280;64877;50.994;13.650;2024-01-30T11:47:54;100909.84;;;10.52;52.22
76132;BME280;64877;50.994;13.650;2024-01-30T11:50:20;100911.59;;;10.53;52.09
76132;BME280;64877;50.994;13.650;2024-01-30T11:52:47;100909.19;;;10.65;51.89
76132;BME280;64877;50.994;13.650;2024-01-30T11:55:14;100902.00;;;10.64;52.46
76132;BME280;64877;50.994;13.650;2024-01-30T11:57:39;100903.94;;;10.61;52.08
76132;BME280;64877;50.994;13.650;2024-01-30T12:00:05;100902.00;;;10.64;52.07
76132;BME280;64877;50.994;13.650;2024-01-30T12:02:39;100897.47;;;10.64;52.36
76132;BME280;64877;50.994;13.650;2024-01-30T12:05:08;100899.94;;;10.53;52.91
76132;BME280;64877;50.994;13.650;2024-01-30T12:07:34;100899.31;;;10.48;53.11
76132;BME280;64877;50.994;13.650;2024-01-30T12:10:00;100906.13;;;10.55;52.76
76132;BME280;64877;50.994;13.650;2024-01-30T12:12:27;100906.56;;;10.47;53.25
76132;BME280;64877;50.994;13.650;2024-01-30T12:14:53;100904.97;;;10.43;53.83
76132;BME280;64877;50.994;13.650;2024-01-30T12:17:32;100895.06;;;10.59;52.72
76132;BME280;64877;50.994;13.650;2024-01-30T12:22:36;100893.16;;;10.30;53.84
76132;BME280;64877;50.994;13.650;2024-01-30T12:25:03;100893.47;;;10.24;54.22
76132;BME280;64877;50.994;13.650;2024-01-30T12:27:29;100894.16;;;10.12;53.92
76132;BME280;64877;50.994;13.650;2024-01-30T12:29:58;100890.47;;;10.13;53.72
76132;BME280;64877;50.994;13.650;2024-01-30T12:32:23;100892.22;;;10.14;53.69
76132;BME280;64877;50.994;13.650;2024-01-30T12:34:49;100891.53;;;10.10;53.89
76132;BME280;64877;50.994;13.650;2024-01-30T12:37:15;100892.31;;;9.96;53.90
76132;BME280;64877;50.994;13.650;2024-01-30T12:39:45;100887.69;;;9.98;54.17
76132;BME280;64877;50.994;13.650;2024-01-30T12:42:10;100887.25;;;9.90;55.04
76132;BME280;64877;50.994;13.650;2024-01-30T12:44:36;100879.94;;;9.92;54.95